Time;durP1;ratioP1;P1;durP2;ratioP2;P2;SDS_P1;SDS_P2;PMS_P1;PMS_P2;Temp;Humidity;BMP_temperature;BMP_pressure;BME280_temperature;BME280_humidity;BME280_pressure;Samples;Min_cycle;Max_cycle;Signal;HPM_P1;HPM_P2
2023/05/30 00:01:18;;;;;;;11.98;2.97;;;;;;;11.48;78.94;102048.66;5056109;28;20068;-67
2023/05/30 00:03:44;;;;;;;14.82;2.88;;;;;;;11.47;78.84;102051.56;5057512;28;20029;-67
2023/05/30 00:06:14;;;;;;;12.20;3.38;;;;;;;11.47;78.45;102047.00;5058102;28;20060;-67
2023/05/30 00:08:43;;;;;;;12.10;3.10;;;;;;;11.42;78.92;102053.91;5056384;28;20029;-67
2023/05/30 00:11:13;;;;;;;10.13;2.95;;;;;;;11.40;78.79;102055.97;5052829;28;20033;-67
2023/05/30 00:13:39;;;;;;;13.35;3.17;;;;;;;11.26;78.68;102046.75;5052516;28;20021;-66
2023/05/30 00:16:04;;;;;;;13.07;2.60;;;;;;;11.37;78.95;102062.53;5056125;28;20080;-67
2023/05/30 00:18:39;;;;;;;15.35;3.30;;;;;;;11.32;78.78;102061.38;5057524;28;20025;-67
2023/05/30 00:21:06;;;;;;;10.88;2.90;;;;;;;11.21;78.59;102058.03;5057553;28;20458;-67
2023/05/30 00:23:33;;;;;;;13.65;3.33;;;;;;;11.17;78.49;102062.09;5058318;28;20052;-67
2023/05/30 00:26:03;;;;;;;16.75;3.80;;;;;;;11.18;79.11;102074.53;5056480;28;20071;-67
2023/05/30 00:28:28;;;;;;;14.88;3.60;;;;;;;11.19;78.81;102078.94;5039984;28;20033;-67
2023/05/30 00:30:53;;;;;;;12.02;2.95;;;;;;;11.12;78.67;102074.38;5055546;28;20048;-68
2023/05/30 00:33:22;;;;;;;13.20;3.33;;;;;;;11.05;79.51;102080.44;5056754;28;20029;-67
2023/05/30 00:35:48;;;;;;;17.02;3.20;;;;;;;10.95;79.29;102082.50;5056907;28;20029;-67
2023/05/30 00:38:14;;;;;;;15.45;3.30;;;;;;;10.92;79.11;102084.69;5044378;28;20101;-67
2023/05/30 00:40:39;;;;;;;12.45;3.35;;;;;;;10.88;79.42;102084.19;5061632;28;20028;-67
2023/05/30 00:43:05;;;;;;;20.13;3.55;;;;;;;10.69;79.56;102057.59;5057325;28;20047;-67
2023/05/30 00:45:30;;;;;;;12.70;3.20;;;;;;;10.79;79.66;102074.44;5056768;28;20416;-67
2023/05/30 00:47:57;;;;;;;12.52;3.30;;;;;;;10.80;79.84;102093.13;5055836;28;20033;-67
2023/05/30 00:50:26;;;;;;;18.13;3.78;;;;;;;10.74;79.82;102093.78;5057694;28;20441;-67
2023/05/30 00:52:53;;;;;;;10.98;2.78;;;;;;;10.72;80.34;102106.56;5040368;28;20049;-67
2023/05/30 00:55:20;;;;;;;18.00;3.47;;;;;;;10.61;79.92;102093.44;5057802;28;20509;-67
2023/05/30 00:57:47;;;;;;;16.85;3.53;;;;;;;10.60;80.29;102097.16;5043020;28;20092;-67
2023/05/30 01:00:14;;;;;;;18.15;3.67;;;;;;;10.63;80.19;102099.53;5061612;28;20550;-67
2023/05/30 01:02:40;;;;;;;15.50;3.63;;;;;;;10.63;80.74;102098.66;5077125;28;20059;-67
2023/05/30 01:05:06;;;;;;;14.38;3.70;;;;;;;10.63;80.59;102101.34;5081228;28;20036;-67
2023/05/30 01:07:33;;;;;;;11.60;3.28;;;;;;;10.51;80.84;102077.47;5063193;28;20371;-67
2023/05/30 01:09:59;;;;;;;11.90;3.13;;;;;;;10.63;80.91;102096.84;5063566;28;20041;-67
2023/05/30 01:12:43;;;;;;;16.58;3.65;;;;;;;10.58;81.14;102100.00;5046424;28;20222;-67
2023/05/30 01:15:30;;;;;;;16.30;3.22;;;;;;;10.57;81.26;102094.81;5080479;28;20059;-67
2023/05/30 01:18:25;;;;;;;13.43;3.35;;;;;;;10.61;81.18;102106.06;5081006;28;20028;-67
2023/05/30 01:20:59;;;;;;;13.82;3.42;;;;;;;10.59;80.60;102103.53;5036772;28;20036;-67
2023/05/30 01:23:41;;;;;;;14.23;3.33;;;;;;;10.58;81.11;102112.63;5061822;28;20389;-67
2023/05/30 01:26:31;;;;;;;15.00;3.42;;;;;;;10.57;80.94;102119.03;5062547;28;20487;-67
2023/05/30 01:29:02;;;;;;;15.63;3.42;;;;;;;10.56;80.84;102112.81;5083707;28;20027;-67
2023/05/30 01:31:29;;;;;;;17.42;3.40;;;;;;;10.36;80.88;102089.88;5084279;28;20048;-67
2023/05/30 01:33:55;;;;;;;14.25;3.00;;;;;;;10.50;80.88;102107.25;5080051;28;20024;-67
2023/05/30 01:36:21;;;;;;;16.40;3.90;;;;;;;10.43;81.09;102106.22;5076706;28;20043;-66
2023/05/30 01:38:46;;;;;;;15.27;3.50;;;;;;;10.44;81.29;102113.28;5079611;28;20309;-67
2023/05/30 01:41:49;;;;;;;15.75;3.08;;;;;;;10.38;81.94;102119.34;5062282;28;20039;-67
2023/05/30 01:44:53;;;;;;;18.55;3.47;;;;;;;10.32;82.39;102127.03;5043381;28;20090;-67
2023/05/30 01:47:27;;;;;;;13.05;3.10;;;;;;;10.27;82.47;102134.78;5062260;28;20020;-67
2023/05/30 01:50:23;;;;;;;13.43;3.75;;;;;;;10.25;82.60;102130.53;5080006;28;20471;-67
2023/05/30 01:52:59;;;;;;;19.08;3.58;;;;;;;10.22;82.30;102129.00;5073963;28;20100;-67
2023/05/30 01:55:26;;;;;;;19.52;3.28;;;;;;;10.01;82.80;102124.09;5062177;28;20032;-67
2023/05/30 01:57:53;;;;;;;15.88;3.47;;;;;;;10.07;82.55;102142.25;5062144;28;20035;-67
2023/05/30 02:00:20;;;;;;;11.55;3.28;;;;;;;10.10;82.87;102147.31;5080022;28;20421;-67
2023/05/30 02:02:46;;;;;;;14.02;3.97;;;;;;;10.05;82.56;102129.97;5079959;28;20045;-67
2023/05/30 02:05:12;;;;;;;15.07;3.60;;;;;;;10.18;83.04;102151.88;5062144;28;20024;-66
2023/05/30 02:07:37;;;;;;;13.43;3.65;;;;;;;10.16;83.08;102148.50;5078784;28;20400;-67
2023/05/30 02:10:03;;;;;;;14.30;3.53;;;;;;;10.11;83.35;102156.22;5061699;28;20070;-67
2023/05/30 02:12:29;;;;;;;13.07;3.28;;;;;;;10.11;83.03;102156.22;5078130;28;20032;-67
2023/05/30 02:14:54;;;;;;;18.60;3.75;;;;;;;10.05;83.37;102162.25;5078548;28;20036;-67
2023/05/30 02:17:23;;;;;;;22.20;4.25;;;;;;;10.05;83.49;102170.31;5078900;28;20044;-67
2023/05/30 02:19:49;;;;;;;17.10;3.92;;;;;;;10.05;83.48;102170.31;5062950;28;20039;-67
2023/05/30 02:22:15;;;;;;;16.27;3.60;;;;;;;10.10;85.58;102176.06;5082154;28;20044;-66
2023/05/30 02:24:41;;;;;;;18.55;3.88;;;;;;;10.14;84.11;102182.81;5078860;28;20380;-67
2023/05/30 02:27:08;;;;;;;20.50;3.65;;;;;;;10.12;84.49;102184.78;5061413;28;20032;-67
2023/05/30 02:29:33;;;;;;;18.83;3.90;;;;;;;10.13;84.34;102186.47;5078671;28;20037;-67
2023/05/30 02:31:59;;;;;;;22.52;3.83;;;;;;;10.15;84.44;102187.16;5079148;28;20089;-67
2023/05/30 02:34:24;;;;;;;20.58;4.25;;;;;;;10.21;85.07;102193.75;5078637;28;20103;-67
2023/05/30 02:36:50;;;;;;;21.60;3.88;;;;;;;10.28;84.70;102203.72;5060879;28;20089;-67
2023/05/30 02:39:15;;;;;;;20.27;4.00;;;;;;;10.35;84.29;102207.44;5061077;28;20467;-67
2023/05/30 02:41:41;;;;;;;20.35;4.32;;;;;;;10.35;85.10;102198.53;5077492;28;20153;-66
2023/05/30 02:44:06;;;;;;;19.38;3.95;;;;;;;10.65;84.53;102213.25;5073684;28;20024;-66
2023/05/30 02:46:33;;;;;;;21.75;4.28;;;;;;;11.11;84.55;102213.63;5074877;28;20070;-67
2023/05/30 02:48:59;;;;;;;25.23;4.25;;;;;;;11.45;83.69;102204.50;5060699;28;20082;-67
2023/05/30 02:51:25;;;;;;;20.67;4.25;;;;;;;11.96;81.62;102208.66;5060274;28;20453;-66
2023/05/30 02:53:50;;;;;;;19.33;3.92;;;;;;;12.28;80.36;102216.78;5078156;28;20024;-67
2023/05/30 02:56:16;;;;;;;19.80;3.78;;;;;;;12.56;79.54;102215.28;5060338;28;20036;-67
2023/05/30 02:58:41;;;;;;;20.90;4.03;;;;;;;12.80;79.58;102213.44;5060774;28;20028;-67
2023/05/30 03:01:07;;;;;;;28.55;3.83;;;;;;;13.19;77.85;102216.03;5079369;28;20048;-67
2023/05/30 03:03:34;;;;;;;21.98;4.28;;;;;;;13.37;77.32;102213.84;5061404;28;20032;-67
2023/05/30 03:06:01;;;;;;;20.92;4.30;;;;;;;13.84;76.07;102211.84;5077936;28;20451;-67
2023/05/30 03:08:28;;;;;;;15.68;4.18;;;;;;;14.20;74.50;102217.34;5077249;28;20081;-67
2023/05/30 03:10:54;;;;;;;20.63;3.85;;;;;;;14.45;73.61;102209.75;5081745;28;20021;-67
2023/05/30 03:13:20;;;;;;;21.83;3.97;;;;;;;14.76;72.03;102223.03;5044332;28;20032;-67
2023/05/30 03:15:46;;;;;;;20.67;3.88;;;;;;;15.18;70.78;102231.38;5060707;28;20035;-67
2023/05/30 03:18:11;;;;;;;19.05;3.90;;;;;;;15.59;69.17;102228.78;5060527;28;20033;-67
2023/05/30 03:20:37;;;;;;;20.77;3.97;;;;;;;15.95;67.73;102225.91;5060358;28;20024;-66
2023/05/30 03:23:02;;;;;;;11.95;3.05;;;;;;;16.41;66.03;102227.19;5060286;28;20036;-67
2023/05/30 03:25:28;;;;;;;16.27;3.38;;;;;;;16.80;64.27;102231.13;5078076;28;20040;-67
2023/05/30 03:27:54;;;;;;;14.10;3.35;;;;;;;17.06;62.80;102247.47;5060863;28;20036;-67
2023/05/30 03:30:22;;;;;;;14.13;3.22;;;;;;;17.29;61.72;102244.34;5060432;28;20052;-66
2023/05/30 03:32:48;;;;;;;16.85;3.42;;;;;;;17.40;60.72;102250.22;5059771;28;20044;-67
2023/05/30 03:35:16;;;;;;;13.57;3.30;;;;;;;17.68;59.96;102253.56;5059955;28;20047;-67
2023/05/30 03:37:41;;;;;;;14.70;3.95;;;;;;;18.05;58.74;102238.44;5078140;28;20039;-68
2023/05/30 03:40:08;;;;;;;20.05;3.47;;;;;;;18.60;57.36;102248.91;5060346;28;20395;-67
2023/05/30 03:42:34;;;;;;;17.60;3.65;;;;;;;18.62;56.43;102278.69;5059930;28;20029;-68
2023/05/30 03:45:00;;;;;;;16.45;3.50;;;;;;;18.31;56.08;102274.84;5059490;28;20034;-68
2023/05/30 03:47:26;;;;;;;11.88;3.03;;;;;;;18.34;55.73;102287.16;5077412;28;20391;-67
2023/05/30 03:49:52;;;;;;;13.90;2.85;;;;;;;18.51;55.22;102285.66;5077888;28;20093;-68
2023/05/30 03:52:17;;;;;;;13.60;3.03;;;;;;;18.78;54.29;102297.31;5078056;28;20024;-67
2023/05/30 03:54:44;;;;;;;17.45;3.78;;;;;;;18.76;53.83;102302.97;5040556;28;20035;-67
2023/05/30 03:57:10;;;;;;;18.80;4.10;;;;;;;19.31;52.54;102307.06;5056595;28;20107;-67
2023/05/30 03:59:35;;;;;;;13.80;3.13;;;;;;;19.44;52.08;102301.50;5059462;28;20055;-67
2023/05/30 04:02:01;;;;;;;16.67;3.78;;;;;;;19.62;51.30;102317.94;5076855;28;20048;-67
2023/05/30 04:04:26;;;;;;;11.52;3.10;;;;;;;19.85;50.96;102311.06;5079263;28;20488;-68
2023/05/30 04:06:52;;;;;;;12.93;3.05;;;;;;;20.06;50.29;102312.53;5043736;28;20115;-66
2023/05/30 04:09:18;;;;;;;11.38;2.83;;;;;;;20.51;49.09;102318.59;5061226;28;20039;-68
2023/05/30 04:11:43;;;;;;;15.93;3.72;;;;;;;20.51;48.90;102313.13;5060542;28;20543;-68
2023/05/30 04:14:09;;;;;;;11.35;3.08;;;;;;;19.97;49.42;102317.47;5062166;28;20058;-69
2023/05/30 04:16:35;;;;;;;8.60;2.53;;;;;;;19.64;49.70;102318.59;5077990;28;20391;-67
2023/05/30 04:19:00;;;;;;;15.55;3.08;;;;;;;19.63;49.87;102322.38;5078061;28;20050;-68
2023/05/30 04:21:26;;;;;;;10.48;2.88;;;;;;;19.39;50.38;102329.47;5078667;28;20063;-68
2023/05/30 04:23:52;;;;;;;14.55;3.30;;;;;;;19.79;49.71;102333.81;5059016;28;20086;-68
2023/05/30 04:26:17;;;;;;;8.02;2.65;;;;;;;20.26;48.52;102328.72;5072662;28;20066;-67
2023/05/30 04:28:43;;;;;;;10.85;3.15;;;;;;;20.28;48.14;102326.63;5055880;28;20051;-68
2023/05/30 04:31:10;;;;;;;10.82;3.40;;;;;;;20.33;48.33;102340.41;5059024;28;20097;-67
2023/05/30 04:33:37;;;;;;;15.48;2.88;;;;;;;19.97;48.82;102322.94;5059136;28;20421;-67
2023/05/30 04:36:08;;;;;;;10.40;3.22;;;;;;;19.92;48.89;102330.97;5059854;28;20030;-67
2023/05/30 04:38:34;;;;;;;11.50;3.08;;;;;;;20.02;49.16;102352.31;5057753;28;20029;-67
2023/05/30 04:41:02;;;;;;;13.93;2.78;;;;;;;20.23;48.96;102364.72;5059269;28;20036;-67
2023/05/30 04:43:31;;;;;;;15.90;3.42;;;;;;;19.89;49.41;102359.56;5077562;28;20020;-67
2023/05/30 04:46:00;;;;;;;8.15;2.65;;;;;;;20.11;49.18;102367.38;5077491;28;20028;-68
2023/05/30 04:48:29;;;;;;;14.52;2.90;;;;;;;20.42;48.52;102363.66;5058992;28;20024;-67
2023/05/30 04:50:54;;;;;;;17.27;3.35;;;;;;;20.33;47.97;102368.63;5070320;28;20047;-68
2023/05/30 04:53:20;;;;;;;12.02;2.90;;;;;;;20.24;48.70;102375.44;5060411;28;20021;-67
2023/05/30 04:55:46;;;;;;;10.00;3.03;;;;;;;20.72;47.89;102371.16;5080509;28;20016;-68
2023/05/30 04:58:13;;;;;;;8.63;2.55;;;;;;;20.90;48.13;102373.06;5063168;28;20025;-68
2023/05/30 05:00:39;;;;;;;14.90;2.60;;;;;;;21.31;47.63;102372.25;5044300;28;20036;-69
2023/05/30 05:03:08;;;;;;;13.45;3.03;;;;;;;21.48;47.66;102369.72;5078687;28;20052;-67
2023/05/30 05:05:33;;;;;;;13.50;3.05;;;;;;;21.15;48.28;102368.28;5078952;28;20100;-67
2023/05/30 05:07:59;;;;;;;13.48;2.50;;;;;;;20.91;48.44;102356.38;5078421;28;20059;-68
2023/05/30 05:10:25;;;;;;;10.13;2.40;;;;;;;20.23;49.95;102376.50;5044284;28;20140;-67
2023/05/30 05:12:51;;;;;;;10.60;2.65;;;;;;;19.99;50.59;102380.91;5060056;28;20052;-68
2023/05/30 05:15:16;;;;;;;12.77;3.38;;;;;;;19.70;51.46;102383.25;5061041;28;20035;-67
2023/05/30 05:17:43;;;;;;;10.40;2.40;;;;;;;19.10;52.90;102371.81;5078524;28;20495;-67
2023/05/30 05:20:09;;;;;;;9.93;2.58;;;;;;;18.74;54.56;102389.63;5044046;28;20032;-67
2023/05/30 05:22:35;;;;;;;8.15;2.10;;;;;;;18.18;55.95;102379.25;5077763;28;20053;-68
2023/05/30 05:25:01;;;;;;;9.25;2.00;;;;;;;18.22;55.82;102390.56;5060139;28;20047;-68
2023/05/30 05:27:27;;;;;;;12.65;2.53;;;;;;;17.99;56.08;102394.53;5079105;28;20039;-68
2023/05/30 05:29:53;;;;;;;11.63;2.78;;;;;;;18.01;56.31;102389.72;5062325;28;20036;-67
2023/05/30 05:32:18;;;;;;;8.90;2.53;;;;;;;17.96;56.27;102400.41;5076469;28;20050;-68
2023/05/30 05:34:44;;;;;;;8.63;2.70;;;;;;;18.26;56.08;102392.63;5078819;28;20036;-68
2023/05/30 05:37:09;;;;;;;10.13;2.45;;;;;;;18.49;55.68;102394.06;5079598;28;20052;-68
2023/05/30 05:39:35;;;;;;;10.07;2.35;;;;;;;18.63;55.24;102394.84;5079294;28;20028;-69
2023/05/30 05:42:03;;;;;;;7.72;2.30;;;;;;;18.45;55.32;102390.09;5062706;28;20040;-68
2023/05/30 05:44:30;;;;;;;8.35;2.15;;;;;;;18.30;55.07;102393.88;5084342;28;20035;-68
2023/05/30 05:46:56;;;;;;;10.30;2.42;;;;;;;17.99;55.64;102399.97;5066546;28;20059;-68
2023/05/30 05:49:22;;;;;;;9.95;2.20;;;;;;;18.08;55.48;102396.00;5066229;28;20033;-68
2023/05/30 05:51:47;;;;;;;6.60;2.10;;;;;;;18.00;55.85;102392.66;5082969;28;20025;-68
2023/05/30 05:54:13;;;;;;;10.60;2.50;;;;;;;17.84;55.55;102416.50;5063442;28;20387;-69
2023/05/30 05:56:38;;;;;;;7.88;2.45;;;;;;;17.77;55.39;102418.41;5084771;28;20123;-69
2023/05/30 05:59:03;;;;;;;7.00;1.90;;;;;;;17.71;55.08;102429.25;5066439;28;20054;-69
2023/05/30 06:01:29;;;;;;;7.32;1.85;;;;;;;17.49;55.43;102423.16;5062852;28;20052;-68
2023/05/30 06:03:54;;;;;;;6.82;1.88;;;;;;;17.77;54.75;102426.56;5080449;28;20060;-68
2023/05/30 06:06:20;;;;;;;6.75;1.60;;;;;;;17.57;54.38;102428.38;5080348;28;20024;-68
2023/05/30 06:08:46;;;;;;;8.32;1.77;;;;;;;17.76;53.83;102435.78;5081006;28;20021;-69
2023/05/30 06:11:12;;;;;;;6.10;1.92;;;;;;;17.82;53.23;102439.56;5094719;28;20021;-68
2023/05/30 06:13:38;;;;;;;6.00;1.67;;;;;;;17.44;53.12;102421.03;5077109;28;20024;-68
2023/05/30 06:16:03;;;;;;;9.10;2.00;;;;;;;17.54;53.20;102434.25;5076330;28;20123;-70
2023/05/30 06:18:29;;;;;;;6.38;1.67;;;;;;;18.03;52.68;102442.09;5044990;28;20074;-68
2023/05/30 06:20:54;;;;;;;8.80;1.80;;;;;;;18.39;52.09;102445.44;5078428;28;20047;-67
2023/05/30 06:23:21;;;;;;;8.23;1.67;;;;;;;18.28;51.71;102436.88;5045663;28;20743;-68
2023/05/30 06:25:46;;;;;;;6.32;1.73;;;;;;;18.71;50.92;102436.38;5061767;28;20661;-68
2023/05/30 06:28:12;;;;;;;5.85;1.92;;;;;;;18.62;51.15;102421.28;5045647;28;20056;-68
2023/05/30 06:30:37;;;;;;;5.78;1.63;;;;;;;19.21;50.26;102435.81;5062457;28;20032;-68
2023/05/30 06:33:03;;;;;;;9.05;1.80;;;;;;;19.31;49.74;102441.66;5079783;28;20405;-68
2023/05/30 06:35:28;;;;;;;8.38;1.73;;;;;;;19.57;48.96;102442.53;5061908;28;20036;-68
2023/05/30 06:37:54;;;;;;;9.13;1.70;;;;;;;19.58;48.81;102444.22;5079486;28;20092;-68
2023/05/30 06:40:20;;;;;;;10.20;1.77;;;;;;;19.52;48.48;102445.09;5079112;28;20031;-68
2023/05/30 06:42:45;;;;;;;6.72;1.67;;;;;;;19.68;48.71;102453.63;5060465;28;20032;-68
2023/05/30 06:45:12;;;;;;;7.05;1.50;;;;;;;19.84;47.88;102449.56;5079671;28;20452;-68
2023/05/30 06:47:38;;;;;;;5.88;1.85;;;;;;;19.57;47.99;102443.41;5080746;28;20070;-68
2023/05/30 06:50:04;;;;;;;3.85;1.42;;;;;;;19.67;47.93;102462.91;5079400;28;20025;-69
2023/05/30 06:52:30;;;;;;;5.30;1.40;;;;;;;19.79;47.68;102471.22;5060742;28;20044;-68
2023/05/30 06:54:55;;;;;;;6.07;1.60;;;;;;;20.03;47.08;102474.19;5043708;28;20071;-68
2023/05/30 06:57:21;;;;;;;6.07;1.70;;;;;;;19.81;47.39;102466.38;5061726;28;20082;-68
2023/05/30 06:59:46;;;;;;;7.65;1.50;;;;;;;19.83;47.12;102480.63;5045531;28;20502;-68
2023/05/30 07:02:12;;;;;;;7.78;1.45;;;;;;;20.05;46.90;102483.03;5045413;28;20052;-68
2023/05/30 07:04:37;;;;;;;10.50;1.85;;;;;;;20.10;47.16;102483.22;5079585;28;20484;-69
2023/05/30 07:07:03;;;;;;;10.02;1.73;;;;;;;19.99;47.13;102484.75;5079164;28;20483;-68
2023/05/30 07:09:28;;;;;;;7.18;2.05;;;;;;;20.44;47.41;102484.59;5061019;28;20040;-68
2023/05/30 07:11:54;;;;;;;8.63;1.80;;;;;;;20.04;48.30;102501.31;5079275;28;20028;-68
2023/05/30 07:14:20;;;;;;;7.95;1.83;;;;;;;19.64;48.88;102487.91;5061317;28;20024;-68
2023/05/30 07:16:45;;;;;;;8.30;2.00;;;;;;;19.54;50.01;102505.81;5061138;28;20052;-68
2023/05/30 07:19:11;;;;;;;6.03;2.35;;;;;;;19.57;50.23;102502.59;5078584;28;20028;-69
2023/05/30 07:21:37;;;;;;;7.55;1.95;;;;;;;19.61;50.79;102488.31;5078664;28;20024;-68
2023/05/30 07:24:03;;;;;;;5.18;1.60;;;;;;;19.52;50.47;102500.53;5078937;28;20024;-68
2023/05/30 07:26:28;;;;;;;6.95;1.98;;;;;;;19.75;50.39;102497.31;5078618;28;20112;-68
2023/05/30 07:28:54;;;;;;;5.63;1.75;;;;;;;20.11;49.80;102495.81;5061416;28;20034;-69
2023/05/30 07:31:19;;;;;;;6.05;1.90;;;;;;;20.10;49.25;102491.41;5060518;28;20032;-68
2023/05/30 07:33:45;;;;;;;5.65;1.90;;;;;;;20.27;48.62;102487.06;5078763;28;20024;-68
2023/05/30 07:36:11;;;;;;;6.22;1.80;;;;;;;20.31;47.64;102501.94;5060658;28;20114;-68
2023/05/30 07:38:37;;;;;;;5.25;1.88;;;;;;;20.37;48.08;102495.59;5043981;28;20039;-68
2023/05/30 07:41:03;;;;;;;5.70;2.15;;;;;;;20.38;47.89;102497.25;5078598;28;20119;-68
2023/05/30 07:43:28;;;;;;;6.35;2.00;;;;;;;20.59;47.27;102492.47;5078630;28;20492;-68
2023/05/30 07:45:53;;;;;;;8.85;1.77;;;;;;;20.78;47.37;102501.56;5061493;28;20033;-68
2023/05/30 07:48:19;;;;;;;6.50;1.95;;;;;;;20.59;47.37;102501.50;5061345;28;20039;-68
2023/05/30 07:50:44;;;;;;;5.30;1.60;;;;;;;20.24;47.01;102500.34;5082471;28;20028;-69
2023/05/30 07:53:10;;;;;;;6.15;1.23;;;;;;;20.30;46.18;102496.72;5079547;28;20520;-68
2023/05/30 07:55:36;;;;;;;5.40;1.65;;;;;;;20.43;45.88;102502.06;5079559;28;20032;-68
2023/05/30 07:58:01;;;;;;;5.60;1.40;;;;;;;20.70;45.40;102496.38;5061775;28;20032;-68
2023/05/30 08:00:27;;;;;;;5.07;1.50;;;;;;;20.34;45.06;102496.03;5061304;28;20043;-68
2023/05/30 08:02:53;;;;;;;4.63;1.42;;;;;;;20.48;44.69;102496.75;5060890;28;20040;-68
2023/05/30 08:05:18;;;;;;;6.32;1.25;;;;;;;20.76;45.13;102492.72;5061011;28;20400;-68
2023/05/30 08:07:43;;;;;;;2.95;1.10;;;;;;;20.56;44.08;102495.66;5059795;28;20044;-68
2023/05/30 08:10:09;;;;;;;5.47;1.70;;;;;;;20.71;43.73;102495.31;5028109;28;20048;-68
2023/05/30 08:12:34;;;;;;;3.28;1.63;;;;;;;20.76;43.72;102500.94;5078770;28;20088;-68
2023/05/30 08:15:00;;;;;;;4.65;1.52;;;;;;;20.70;43.06;102501.88;5044396;28;20036;-68
2023/05/30 08:17:29;;;;;;;8.07;1.23;;;;;;;20.87;43.14;102511.16;5060955;28;20036;-68
2023/05/30 08:19:55;;;;;;;4.20;1.20;;;;;;;20.93;42.73;102502.03;5044716;28;20032;-68
2023/05/30 08:22:23;;;;;;;2.90;1.48;;;;;;;21.15;42.58;102499.66;5060606;28;20037;-68
2023/05/30 08:24:50;;;;;;;4.63;1.10;;;;;;;21.27;41.50;102484.16;5078572;28;20021;-69
2023/05/30 08:27:17;;;;;;;5.03;1.30;;;;;;;21.15;41.94;102510.63;5060513;28;20043;-68
2023/05/30 08:29:43;;;;;;;3.33;1.20;;;;;;;21.51;41.40;102501.56;5043927;28;20046;-68
2023/05/30 08:32:08;;;;;;;5.38;1.17;;;;;;;21.50;41.22;102508.13;5078037;28;20025;-68
2023/05/30 08:34:34;;;;;;;3.35;1.20;;;;;;;21.76;40.57;102506.91;5056974;28;20111;-68
2023/05/30 08:37:00;;;;;;;5.65;1.13;;;;;;;21.70;39.92;102509.75;5077970;28;20029;-69
2023/05/30 08:39:26;;;;;;;6.95;1.30;;;;;;;21.81;40.43;102506.22;5060082;28;20028;-69
2023/05/30 08:41:52;;;;;;;4.88;1.40;;;;;;;21.92;40.01;102505.44;5043510;28;20028;-70
2023/05/30 08:44:19;;;;;;;3.10;1.17;;;;;;;21.92;39.45;102497.22;5078467;28;20070;-69
2023/05/30 08:46:45;;;;;;;2.83;0.90;;;;;;;21.75;38.69;102498.91;5062966;28;20035;-69
2023/05/30 08:49:18;;;;;;;3.20;1.05;;;;;;;21.93;38.11;102501.59;5063737;28;20190;-71
2023/05/30 08:51:44;;;;;;;2.63;1.10;;;;;;;21.94;38.46;102508.75;5078771;28;20048;-68
2023/05/30 08:54:22;;;;;;;3.15;0.98;;;;;;;21.77;37.47;102511.31;5078971;28;20086;-68
2023/05/30 08:57:26;;;;;;;3.50;0.77;;;;;;;21.86;35.87;102520.06;5078512;28;20031;-68
2023/05/30 08:59:53;;;;;;;2.38;1.00;;;;;;;21.82;36.81;102513.38;5078048;28;20021;-68
2023/05/30 09:02:20;;;;;;;3.45;0.77;;;;;;;22.23;36.26;102517.22;5060231;28;20155;-69
2023/05/30 09:04:47;;;;;;;1.77;0.88;;;;;;;22.17;36.65;102515.41;5060744;28;20020;-68
2023/05/30 09:07:14;;;;;;;2.20;0.60;;;;;;;22.18;35.60;102520.63;5060219;28;20032;-68
2023/05/30 09:09:41;;;;;;;4.70;0.88;;;;;;;22.39;36.33;102521.19;5077506;28;20032;-68
2023/05/30 09:12:09;;;;;;;2.50;0.90;;;;;;;22.12;36.96;102516.09;5059963;28;20024;-69
2023/05/30 09:14:34;;;;;;;2.38;0.80;;;;;;;22.07;37.31;102523.34;5060245;28;20082;-69
2023/05/30 09:17:00;;;;;;;2.65;0.70;;;;;;;22.16;37.61;102511.00;5060419;28;20037;-69
2023/05/30 09:19:26;;;;;;;1.23;0.52;;;;;;;21.81;38.19;102500.72;5031388;28;20024;-68
2023/05/30 09:21:52;;;;;;;2.05;0.70;;;;;;;22.04;38.14;102516.41;5064070;28;20020;-68
2023/05/30 09:24:17;;;;;;;2.10;0.70;;;;;;;21.76;37.96;102512.41;5082177;28;20031;-68
2023/05/30 09:27:09;;;;;;;2.35;0.60;;;;;;;22.04;36.33;102514.50;5082873;28;20127;-69
2023/05/30 09:29:42;;;;;;;1.73;0.65;;;;;;;22.18;36.77;102519.81;5079725;28;20048;-69
2023/05/30 09:32:09;;;;;;;1.85;1.00;;;;;;;22.28;36.17;102509.09;5081954;28;20020;-69
2023/05/30 09:34:34;;;;;;;2.05;0.65;;;;;;;22.42;35.97;102510.56;5082297;28;20024;-69
2023/05/30 09:37:04;;;;;;;1.98;0.50;;;;;;;22.22;34.63;102510.06;5082383;28;20025;-69
2023/05/30 09:39:29;;;;;;;1.15;0.50;;;;;;;22.41;34.33;102511.63;5081755;28;20407;-71
2023/05/30 09:41:58;;;;;;;1.15;0.57;;;;;;;22.42;34.71;102513.31;5063958;28;20032;-70
2023/05/30 09:44:24;;;;;;;1.45;0.50;;;;;;;22.51;35.04;102514.59;5081280;28;20096;-73
2023/05/30 09:46:56;;;;;;;2.78;0.60;;;;;;;22.51;34.18;102511.03;5084667;28;20048;-68
2023/05/30 09:49:22;;;;;;;0.43;0.30;;;;;;;22.33;33.38;102516.63;5085270;28;20408;-69
2023/05/30 09:51:50;;;;;;;0.85;0.40;;;;;;;22.48;33.03;102508.75;5066938;28;20032;-69
2023/05/30 09:54:15;;;;;;;1.25;0.50;;;;;;;22.42;33.20;102513.31;5084884;28;20487;-69
2023/05/30 09:56:42;;;;;;;2.38;0.90;;;;;;;22.01;39.65;102525.94;5066721;28;20070;-68
2023/05/30 09:59:09;;;;;;;2.70;1.02;;;;;;;21.40;40.73;102524.25;5083341;28;20050;-69
2023/05/30 10:01:37;;;;;;;4.40;1.13;;;;;;;21.18;43.43;102521.09;5080787;28;20171;-69
2023/05/30 10:04:22;;;;;;;4.30;1.73;;;;;;;20.79;48.80;102516.91;5078548;28;20033;-69
2023/05/30 10:06:51;;;;;;;3.72;1.50;;;;;;;20.39;50.73;102511.75;5083736;28;20028;-68
2023/05/30 10:09:20;;;;;;;3.55;1.58;;;;;;;20.43;51.64;102523.94;5065865;28;20785;-69
2023/05/30 10:11:45;;;;;;;3.45;1.50;;;;;;;20.47;52.47;102527.91;5065422;28;20082;-69
2023/05/30 10:14:11;;;;;;;4.22;1.55;;;;;;;20.41;52.56;102529.63;5082896;28;20032;-68
2023/05/30 10:16:48;;;;;;;6.78;1.70;;;;;;;20.10;54.38;102511.38;5047567;28;20044;-68
2023/05/30 10:19:18;;;;;;;4.65;1.50;;;;;;;20.17;52.73;102520.34;5064637;28;20061;-69
2023/05/30 10:21:45;;;;;;;3.55;1.40;;;;;;;20.07;53.18;102503.63;5063788;28;20040;-68
2023/05/30 10:24:15;;;;;;;3.75;1.40;;;;;;;20.08;51.70;102513.47;5064497;28;20040;-69
2023/05/30 10:26:49;;;;;;;2.00;1.10;;;;;;;20.17;50.52;102519.53;5064169;28;20037;-68
2023/05/30 10:29:19;;;;;;;5.72;1.50;;;;;;;20.24;55.68;102520.31;5081014;28;20053;-68
2023/05/30 10:31:45;;;;;;;4.60;1.48;;;;;;;20.36;54.94;102514.94;5081776;28;20035;-68
2023/05/30 10:34:13;;;;;;;5.15;1.40;;;;;;;20.38;55.19;102521.03;5064735;28;20036;-69
2023/05/30 10:36:42;;;;;;;3.53;1.20;;;;;;;20.28;53.55;102512.50;5081728;28;20059;-69
2023/05/30 10:39:27;;;;;;;3.85;1.30;;;;;;;20.19;55.67;102531.06;5082591;28;20036;-69
2023/05/30 10:42:19;;;;;;;3.97;1.48;;;;;;;20.14;54.05;102528.16;5077833;28;20152;-68
2023/05/30 10:44:54;;;;;;;3.65;1.40;;;;;;;20.19;54.80;102525.59;5079518;28;20039;-69
2023/05/30 10:47:33;;;;;;;4.07;1.30;;;;;;;20.19;57.36;102531.88;5079915;28;20029;-69
2023/05/30 10:50:04;;;;;;;4.68;1.27;;;;;;;20.20;54.07;102524.56;5063674;28;20039;-69
2023/05/30 10:52:31;;;;;;;4.93;1.10;;;;;;;20.32;52.86;102528.22;5081309;28;20020;-69
2023/05/30 10:54:57;;;;;;;2.55;1.15;;;;;;;20.44;55.52;102513.84;5063007;28;20123;-68
2023/05/30 10:57:27;;;;;;;4.03;1.20;;;;;;;20.14;54.93;102504.41;5062909;28;20086;-69
2023/05/30 11:00:17;;;;;;;3.88;1.60;;;;;;;20.19;58.31;102522.84;5058733;28;20123;-69
2023/05/30 11:02:48;;;;;;;5.18;1.40;;;;;;;20.49;59.13;102533.97;5079831;28;20458;-69
2023/05/30 11:05:19;;;;;;;3.22;1.50;;;;;;;20.72;56.54;102530.63;5082199;28;20147;-68
2023/05/30 11:07:45;;;;;;;4.60;1.60;;;;;;;20.52;55.60;102527.25;5082287;28;20028;-68
2023/05/30 11:10:11;;;;;;;2.28;1.23;;;;;;;20.61;54.18;102524.00;5063996;28;20029;-69
2023/05/30 11:12:47;;;;;;;3.05;1.30;;;;;;;20.97;52.38;102521.56;5081962;28;20082;-68
2023/05/30 11:15:30;;;;;;;4.38;1.73;;;;;;;20.98;51.00;102537.75;5082578;28;20028;-68
2023/05/30 11:17:56;;;;;;;2.60;1.17;;;;;;;21.00;50.43;102541.09;5064772;28;20059;-68
2023/05/30 11:20:22;;;;;;;5.65;1.30;;;;;;;21.16;49.29;102534.22;5064234;28;20483;-69
2023/05/30 11:23:03;;;;;;;3.58;1.30;;;;;;;21.32;48.54;102528.13;5064317;28;20032;-69
2023/05/30 11:25:31;;;;;;;3.88;1.30;;;;;;;21.08;48.84;102538.06;5083346;28;20037;-69